Time;durP1;ratioP1;P1;durP2;ratioP2;P2;SDS_P1;SDS_P2;PMS_P1;PMS_P2;Temp;Humidity;BMP_temperature;BMP_pressure;BME280_temperature;BME280_humidity;BME280_pressure;Samples;Min_cycle;Max_cycle;Signal;HPM_P1;HPM_P2
2021/04/23 00:02:21;;;;;;;19.35;7.35;;;10.00;99.90;;;10.40;58.74;102776.72;5075157;28;20053;-69
2021/04/23 00:04:48;;;;;;;18.70;7.85;;;10.00;99.90;;;10.31;59.06;102776.50;5057269;28;20048;-69
2021/04/23 00:07:16;;;;;;;16.52;7.80;;;10.00;99.90;;;10.24;59.28;102775.41;5075292;28;20072;-69
2021/04/23 00:09:44;;;;;;;17.17;7.53;;;9.90;99.90;;;10.26;58.84;102775.47;5075330;28;20090;-69
2021/04/23 00:12:15;;;;;;;21.95;7.63;;;9.90;99.90;;;9.71;59.44;102676.09;5074952;28;20044;-69
2021/04/23 00:14:48;;;;;;;18.88;7.55;;;9.90;99.90;;;10.22;59.22;102765.66;5073632;28;20416;-69
2021/04/23 00:17:17;;;;;;;21.05;8.02;;;9.80;99.90;;;10.26;59.80;102760.47;5075279;28;20044;-69
2021/04/23 00:19:45;;;;;;;19.30;8.27;;;9.90;99.90;;;10.23;59.40;102771.00;5074662;28;20522;-69
2021/04/23 00:22:14;;;;;;;12.55;7.35;;;9.90;99.90;;;10.35;59.83;102762.50;5074817;28;20098;-70
2021/04/23 00:24:42;;;;;;;13.80;7.03;;;9.90;99.90;;;10.34;59.46;102766.88;5075087;28;20491;-68
2021/04/23 00:27:09;;;;;;;17.52;7.38;;;10.00;99.90;;;10.25;59.74;102774.59;5074735;28;20458;-69
2021/04/23 00:29:38;;;;;;;17.23;7.25;;;9.90;99.90;;;10.14;60.09;102762.81;5056904;28;20063;-69
2021/04/23 00:34:53;;;;;;;15.68;7.28;;;9.80;99.90;;;10.09;59.90;102768.78;5074752;28;20369;-69
2021/04/23 00:37:20;;;;;;;17.75;7.30;;;9.70;99.90;;;10.03;59.96;102773.03;5048974;28;20160;-69
2021/04/23 00:39:48;;;;;;;17.60;7.93;;;9.70;99.90;;;9.95;60.06;102766.63;5035183;28;20115;-69
2021/04/23 00:42:15;;;;;;;12.95;7.10;;;9.60;99.90;;;9.96;59.94;102772.84;5034460;28;20049;-69
2021/04/23 00:44:43;;;;;;;21.60;7.88;;;9.60;99.90;;;9.95;60.12;102769.28;5034353;28;20103;-69
2021/04/23 00:47:11;;;;;;;17.85;8.13;;;9.60;99.90;;;9.76;60.36;102737.00;5034387;28;20045;-69
2021/04/23 00:49:39;;;;;;;16.08;7.80;;;9.60;99.90;;;9.88;60.47;102767.31;5034285;28;20488;-69
2021/04/23 00:52:08;;;;;;;20.10;7.85;;;9.50;99.90;;;9.69;60.42;102733.31;5034222;28;20052;-69
2021/04/23 00:54:35;;;;;;;13.77;6.90;;;9.60;99.90;;;9.87;60.51;102762.00;5033737;28;20065;-70
2021/04/23 00:57:03;;;;;;;16.95;7.15;;;9.50;99.90;;;9.89;60.58;102769.09;5034279;28;20487;-69
2021/04/23 00:59:31;;;;;;;15.45;7.93;;;9.50;99.90;;;9.87;60.48;102757.59;5034264;28;20075;-69
2021/04/23 01:02:04;;;;;;;10.93;7.05;;;9.50;99.90;;;9.84;61.03;102768.09;5032532;28;20045;-69
2021/04/23 01:04:32;;;;;;;9.63;6.40;;;9.50;99.90;;;9.76;62.93;102768.69;5034220;28;20432;-69
2021/04/23 01:07:00;;;;;;;11.65;7.22;;;9.40;99.90;;;9.75;64.13;102759.91;5033893;28;20069;-69
2021/04/23 01:09:31;;;;;;;8.93;6.50;;;9.40;99.90;;;9.54;65.29;102743.38;5033960;28;20562;-69
2021/04/23 01:12:01;;;;;;;13.10;6.72;;;9.40;99.90;;;9.62;65.25;102762.13;5033974;28;20056;-69
2021/04/23 01:14:28;;;;;;;9.35;6.38;;;9.30;99.90;;;9.51;65.06;102767.09;5034151;28;20042;-69
2021/04/23 01:16:56;;;;;;;7.78;6.68;;;9.20;99.90;;;9.37;65.23;102756.97;5032346;28;20408;-69
2021/04/23 01:19:26;;;;;;;6.78;6.18;;;9.10;99.90;;;9.22;65.76;102752.09;5033796;28;20049;-69
2021/04/23 01:21:55;;;;;;;7.65;5.75;;;8.90;99.90;;;9.13;66.06;102756.19;5033844;28;20053;-69
2021/04/23 01:24:23;;;;;;;7.32;5.13;;;8.80;99.90;;;9.06;66.22;102758.63;5033485;28;20104;-69
2021/04/23 01:26:53;;;;;;;9.05;5.57;;;8.80;99.90;;;8.98;66.09;102751.34;5033498;28;20045;-69
2021/04/23 01:29:23;;;;;;;6.32;5.72;;;8.70;99.90;;;8.80;65.83;102756.00;5033415;28;20563;-69
2021/04/23 01:31:54;;;;;;;6.88;6.18;;;8.50;99.90;;;8.60;65.89;102757.06;5033623;28;20079;-69
2021/04/23 01:34:27;;;;;;;4.93;4.53;;;8.30;99.90;;;8.35;65.32;102754.44;5031944;28;20076;-69
2021/04/23 01:36:57;;;;;;;5.10;4.70;;;8.10;99.90;;;8.07;65.83;102731.47;5034351;28;20060;-68
2021/04/23 01:39:28;;;;;;;6.20;5.70;;;7.90;99.90;;;8.02;65.94;102749.72;5073123;28;20131;-69
2021/04/23 01:41:57;;;;;;;5.78;5.38;;;7.70;99.90;;;7.79;67.25;102748.00;5073274;28;20133;-69
2021/04/23 01:44:25;;;;;;;5.95;5.45;;;7.50;99.90;;;7.87;67.52;102754.47;5073215;28;20079;-69
2021/04/23 01:46:54;;;;;;;6.28;5.65;;;7.50;99.90;;;7.90;67.53;102751.91;5073043;28;20131;-69
2021/04/23 01:49:23;;;;;;;5.82;5.35;;;7.60;99.90;;;7.95;68.22;102760.91;5073136;28;20067;-69
2021/04/23 01:51:54;;;;;;;5.97;5.47;;;7.60;99.90;;;7.87;68.92;102758.81;5073028;28;20078;-69
2021/04/23 01:54:23;;;;;;;7.63;6.05;;;7.60;99.90;;;7.64;69.22;102765.88;5073027;28;20450;-69
2021/04/23 01:56:51;;;;;;;12.48;5.03;;;7.50;99.90;;;7.76;69.67;102761.03;5072703;28;20482;-69
2021/04/23 01:59:19;;;;;;;6.07;5.38;;;7.40;99.90;;;7.83;69.63;102754.28;5072839;28;20124;-69
2021/04/23 02:01:47;;;;;;;5.75;5.25;;;7.50;99.90;;;7.81;69.83;102748.97;5072879;28;20082;-69
2021/04/23 02:04:17;;;;;;;5.78;5.25;;;7.50;99.90;;;7.65;69.68;102738.69;5072281;28;20064;-69
2021/04/23 02:06:47;;;;;;;6.85;6.35;;;7.50;99.90;;;7.78;70.23;102761.13;5072261;28;20114;-69
2021/04/23 02:09:16;;;;;;;7.00;5.95;;;7.50;99.90;;;7.82;70.12;102761.28;5072498;28;20052;-70
2021/04/23 02:11:47;;;;;;;5.85;5.45;;;7.50;99.90;;;7.73;70.91;102768.84;5072921;28;20071;-70
2021/04/23 02:14:15;;;;;;;7.25;6.75;;;7.40;99.90;;;7.72;71.01;102768.78;5072734;28;20136;-69
2021/04/23 02:16:44;;;;;;;6.68;6.18;;;7.40;99.90;;;7.77;70.58;102770.75;5072295;28;20040;-71
2021/04/23 02:19:13;;;;;;;6.47;5.95;;;7.40;99.90;;;7.83;70.28;102778.00;5072535;28;20040;-71
2021/04/23 02:21:42;;;;;;;6.63;6.13;;;7.50;99.90;;;7.85;70.04;102768.41;5072579;28;20068;-71
2021/04/23 02:24:11;;;;;;;7.53;6.35;;;7.50;99.90;;;7.79;69.88;102765.53;5072515;28;20044;-69
2021/04/23 02:26:41;;;;;;;6.38;5.65;;;7.50;99.90;;;7.86;69.96;102771.09;5072384;28;20048;-69
2021/04/23 02:29:10;;;;;;;;;;;7.50;99.90;;;7.90;70.28;102774.72;5072991;28;20049;-71
2021/04/23 02:31:41;;;;;;;6.80;6.20;;;7.60;99.90;;;7.89;70.01;102780.84;5072665;28;19924;-69
2021/04/23 02:34:13;;;;;;;8.38;6.43;;;7.60;99.90;;;7.92;69.44;102776.59;5072535;28;20040;-69
2021/04/23 02:36:41;;;;;;;6.63;6.17;;;7.60;99.90;;;7.64;69.10;102750.06;5072098;28;20495;-69
2021/04/23 02:39:15;;;;;;;6.00;5.60;;;7.60;99.90;;;7.76;69.99;102787.38;5071835;28;20164;-70
2021/04/23 02:41:44;;;;;;;6.43;5.93;;;7.50;99.90;;;7.69;71.50;102780.09;5072411;28;20044;-69
2021/04/23 02:44:13;;;;;;;13.25;5.82;;;7.30;99.90;;;7.64;71.83;102783.41;5054185;28;20052;-69
2021/04/23 02:46:43;;;;;;;6.43;5.82;;;7.30;99.90;;;7.61;72.43;102778.91;5072112;28;20470;-69
2021/04/23 02:49:12;;;;;;;6.05;5.65;;;7.30;99.90;;;7.70;72.55;102781.91;5054298;28;20063;-67
2021/04/23 02:51:43;;;;;;;7.18;6.47;;;7.30;99.90;;;7.63;72.93;102779.88;5072156;28;20049;-67
2021/04/23 02:54:12;;;;;;;6.28;5.78;;;7.30;99.90;;;7.74;72.83;102778.53;5054184;28;20044;-66
2021/04/23 02:56:41;;;;;;;6.07;5.68;;;7.40;99.90;;;7.75;72.54;102784.69;5071793;28;20506;-67
2021/04/23 02:59:10;;;;;;;6.57;5.78;;;7.40;99.90;;;7.78;71.70;102785.72;5071728;28;20037;-67
2021/04/23 03:01:42;;;;;;;7.35;6.55;;;7.40;99.90;;;7.48;70.96;102737.16;5071823;28;20385;-66
2021/04/23 03:04:09;;;;;;;6.95;6.25;;;7.40;99.90;;;7.78;70.31;102785.72;5072324;28;20052;-67
2021/04/23 03:06:37;;;;;;;8.25;6.78;;;7.40;99.90;;;7.78;69.73;102790.97;5071644;28;20083;-67
2021/04/23 03:09:06;;;;;;;8.13;6.65;;;7.50;99.90;;;7.78;69.75;102793.59;5072058;28;20049;-66
2021/04/23 03:11:36;;;;;;;8.13;6.38;;;7.50;99.90;;;7.82;69.65;102792.00;5071724;28;20037;-67
2021/04/23 03:14:04;;;;;;;8.05;6.63;;;7.50;99.90;;;7.83;69.89;102789.44;5071978;28;20048;-67
2021/04/23 03:16:34;;;;;;;10.60;6.93;;;7.50;99.90;;;7.93;69.49;102790.66;5073237;28;20048;-67
2021/04/23 03:19:03;;;;;;;11.05;7.65;;;7.60;99.90;;;8.03;69.51;102795.44;5057849;28;20053;-66
2021/04/23 03:21:30;;;;;;;12.82;8.43;;;7.60;99.90;;;8.15;69.23;102801.13;5076282;28;20076;-66
2021/04/23 03:23:59;;;;;;;18.52;8.32;;;7.80;99.90;;;8.23;68.78;102806.72;5075814;28;20065;-66
2021/04/23 03:26:26;;;;;;;17.10;8.00;;;7.90;99.90;;;8.30;67.91;102809.66;5075582;28;20086;-67
2021/04/23 03:28:54;;;;;;;12.57;7.30;;;7.90;99.90;;;8.35;67.85;102815.06;5075526;28;20045;-67
2021/04/23 03:31:22;;;;;;;19.00;8.30;;;8.00;99.90;;;8.31;67.76;102813.16;5075586;28;20048;-67
2021/04/23 03:33:50;;;;;;;14.73;7.75;;;8.00;99.90;;;8.31;67.63;102815.81;5075640;28;20391;-67
2021/04/23 03:36:18;;;;;;;10.13;6.43;;;8.00;99.90;;;8.21;68.84;102810.19;5075635;28;20048;-67
2021/04/23 03:38:48;;;;;;;7.22;6.45;;;7.90;99.90;;;8.06;69.42;102792.91;5075732;28;20074;-67
2021/04/23 03:41:19;;;;;;;6.45;5.95;;;7.80;99.90;;;7.91;69.95;102797.63;5075222;28;20051;-67
2021/04/23 03:43:47;;;;;;;6.25;5.65;;;7.70;99.90;;;7.84;69.90;102806.13;5075439;28;20056;-66
2021/04/23 03:46:15;;;;;;;6.72;6.13;;;7.60;99.90;;;7.80;69.65;102805.09;5075044;28;20048;-67
2021/04/23 03:48:43;;;;;;;6.82;6.30;;;7.50;99.90;;;7.66;69.89;102785.28;5075289;28;20457;-66
2021/04/23 03:51:15;;;;;;;6.32;5.72;;;7.40;99.90;;;7.62;70.06;102804.44;5073996;28;20140;-66
2021/04/23 03:53:44;;;;;;;7.18;6.40;;;7.30;99.90;;;7.49;69.30;102796.00;5075417;28;20047;-67
2021/04/23 03:56:13;;;;;;;6.35;5.85;;;7.20;99.90;;;7.33;69.06;102802.38;5075245;28;20053;-67
2021/04/23 03:58:42;;;;;;;7.13;6.47;;;7.10;99.90;;;7.28;68.80;102806.56;5074812;28;20130;-67
2021/04/23 04:01:15;;;;;;;6.25;5.65;;;7.00;99.90;;;7.26;68.67;102806.50;5074885;28;20052;-67
2021/04/23 04:03:44;;;;;;;5.93;5.40;;;6.90;99.90;;;7.24;68.98;102807.25;5074979;28;20127;-67
2021/04/23 04:06:11;;;;;;;5.77;5.30;;;6.90;99.90;;;7.20;68.86;102811.50;5075028;28;20098;-67
2021/04/23 04:08:38;;;;;;;6.77;6.20;;;6.90;99.90;;;7.21;69.35;102809.78;5074792;28;20072;-67
2021/04/23 04:11:07;;;;;;;7.83;5.80;;;6.90;99.90;;;7.14;69.16;102808.63;5074636;28;20484;-67
2021/04/23 04:13:35;;;;;;;5.47;5.07;;;6.90;99.90;;;6.95;69.30;102808.72;5074850;28;20049;-67
2021/04/23 04:16:05;;;;;;;6.20;5.70;;;6.70;99.90;;;6.93;68.94;102818.28;5074420;28;20506;-68
2021/04/23 04:18:33;;;;;;;5.88;5.32;;;6.70;99.90;;;7.02;68.98;102813.41;5075023;28;20090;-66
2021/04/23 04:21:01;;;;;;;5.47;5.07;;;6.70;99.90;;;6.97;69.45;102814.94;5075136;28;20102;-66
2021/04/23 04:23:29;;;;;;;5.10;4.63;;;6.70;99.90;;;7.04;69.63;102821.38;5074701;28;20110;-67
2021/04/23 04:25:59;;;;;;;4.50;4.20;;;6.70;99.90;;;6.55;70.11;102752.69;5074497;28;20083;-66
2021/04/23 04:28:30;;;;;;;4.23;3.90;;;6.70;99.90;;;6.84;69.73;102835.41;5073712;28;20109;-67
2021/04/23 04:30:59;;;;;;;;;;;6.60;99.90;;;6.71;69.57;102828.75;5074967;28;20102;-66
2021/04/23 04:33:46;;;;;;;5.87;5.37;;;6.50;99.90;;;6.75;70.08;102829.78;5074333;28;19948;-67
2021/04/23 04:36:14;;;;;;;6.10;5.60;;;6.50;99.90;;;6.84;70.55;102831.06;5056442;28;20444;-66
2021/04/23 04:38:42;;;;;;;5.77;5.33;;;6.50;99.90;;;6.86;70.79;102836.38;5074454;28;20049;-66
2021/04/23 04:41:11;;;;;;;4.93;4.63;;;6.50;99.90;;;6.94;71.30;102835.88;5074197;28;20582;-66
2021/04/23 04:43:39;;;;;;;5.37;4.93;;;6.60;99.90;;;6.88;71.11;102848.75;5074373;28;20052;-67
2021/04/23 04:46:08;;;;;;;8.17;6.20;;;6.60;99.90;;;6.98;70.41;102853.59;5074047;28;20135;-66
2021/04/23 04:48:36;;;;;;;9.93;6.43;;;6.60;99.90;;;7.06;69.97;102851.28;5074140;28;20163;-67
2021/04/23 04:51:05;;;;;;;8.77;7.27;;;6.80;99.90;;;7.02;69.09;102837.09;5074359;28;20041;-66
2021/04/23 04:53:33;;;;;;;7.17;6.47;;;6.90;99.90;;;6.94;68.73;102829.72;5074235;28;20044;-67
2021/04/23 04:56:00;;;;;;;11.60;7.40;;;6.80;99.90;;;7.14;68.96;102861.25;5074479;28;20117;-67
2021/04/23 04:58:36;;;;;;;10.50;7.70;;;6.90;99.90;;;7.26;68.71;102863.50;5074145;28;20044;-68
2021/04/23 05:01:07;;;;;;;9.83;7.60;;;7.00;99.90;;;7.23;68.91;102858.13;5074267;28;20045;-68
2021/04/23 05:03:35;;;;;;;8.25;7.03;;;7.00;99.90;;;7.17;68.76;102857.88;5073912;28;20056;-69
2021/04/23 05:06:03;;;;;;;9.90;7.17;;;6.90;99.90;;;7.24;68.76;102863.44;5073844;28;20048;-68
2021/04/23 05:08:31;;;;;;;7.00;6.30;;;7.00;99.90;;;7.28;68.80;102867.09;5073929;28;20048;-68
2021/04/23 05:10:58;;;;;;;9.33;6.70;;;7.00;99.90;;;7.34;69.22;102863.84;5072462;28;20482;-68
2021/04/23 05:13:25;;;;;;;8.80;6.43;;;7.00;99.90;;;7.49;69.67;102865.31;5073682;28;20487;-68
2021/04/23 05:15:53;;;;;;;7.20;5.70;;;7.10;99.90;;;7.60;69.99;102874.56;5073699;28;20396;-68
2021/04/23 05:18:21;;;;;;;14.57;5.47;;;7.20;99.90;;;7.65;70.34;102874.72;5073605;28;20127;-68
2021/04/23 05:20:49;;;;;;;7.57;6.00;;;7.30;99.90;;;7.71;70.25;102881.16;5073412;28;20051;-68
2021/04/23 05:23:16;;;;;;;6.93;6.25;;;7.40;99.90;;;7.74;70.62;102875.97;5073679;28;20046;-69
2021/04/23 05:25:44;;;;;;;7.65;6.25;;;7.40;99.90;;;7.90;70.78;102881.03;5073701;28;20045;-69
2021/04/23 05:28:11;;;;;;;7.80;7.13;;;7.50;99.90;;;8.30;70.02;102875.56;5073122;28;20045;-69
2021/04/23 05:30:39;;;;;;;8.40;6.82;;;7.90;99.90;;;8.40;68.68;102877.69;5073044;28;20094;-68
2021/04/23 05:33:09;;;;;;;7.47;6.32;;;8.10;99.90;;;8.51;68.64;102868.44;5073313;28;20444;-69
2021/04/23 05:35:41;;;;;;;10.20;6.57;;;8.20;99.90;;;8.04;68.49;102766.50;5073565;28;20075;-69
2021/04/23 05:38:08;;;;;;;7.72;6.60;;;8.30;99.90;;;8.77;68.27;102874.59;5072840;28;20049;-69
2021/04/23 05:40:39;;;;;;;7.20;6.40;;;8.40;99.90;;;8.99;67.66;102882.44;5072950;28;20128;-69
2021/04/23 05:43:06;;;;;;;5.93;5.40;;;8.60;99.90;;;9.23;68.38;102885.91;5073609;28;20390;-70
2021/04/23 05:45:35;;;;;;;5.22;4.78;;;8.80;99.90;;;9.50;68.52;102889.47;5072860;28;20114;-69
2021/04/23 05:48:03;;;;;;;6.43;5.78;;;9.10;99.90;;;9.72;68.16;102894.56;5072945;28;20052;-68
2021/04/23 05:50:31;;;;;;;6.25;5.65;;;9.30;99.90;;;9.98;68.22;102909.50;5071671;28;20083;-69
2021/04/23 05:52:59;;;;;;;8.98;6.20;;;9.50;99.90;;;10.25;67.43;102903.28;5072635;28;20106;-69
2021/04/23 05:55:26;;;;;;;9.35;6.35;;;9.80;99.90;;;10.55;66.78;102901.53;5072905;28;20467;-69
2021/04/23 05:57:57;;;;;;;6.97;6.28;;;10.10;99.90;;;10.85;66.42;102918.25;5072515;28;20790;-69
2021/04/23 06:00:31;;;;;;;7.88;5.93;;;10.40;99.90;;;11.06;65.74;102915.25;5055031;28;20122;-69
2021/04/23 06:03:00;;;;;;;6.13;5.60;;;10.60;99.90;;;11.21;65.13;102916.56;5071536;28;20072;-69
2021/04/23 06:05:28;;;;;;;6.28;5.72;;;10.80;99.90;;;11.35;64.96;102916.91;5072798;28;20044;-69
2021/04/23 06:07:59;;;;;;;8.82;6.20;;;10.90;99.90;;;11.37;65.61;102910.81;5072828;28;20044;-69
2021/04/23 06:10:27;;;;;;;;;;;10.90;99.90;;;11.74;64.87;102921.50;5055288;28;20453;-69
2021/04/23 06:12:56;;;;;;;9.52;5.38;;;11.30;99.90;;;12.04;64.04;102923.06;5072913;28;19932;-69
2021/04/23 06:15:25;;;;;;;10.45;6.30;;;11.60;99.90;;;11.94;63.52;102913.09;5072715;28;20099;-70
2021/04/23 06:17:54;;;;;;;9.65;6.35;;;11.60;99.90;;;12.28;62.76;102929.78;5072821;28;20106;-69
2021/04/23 06:20:25;;;;;;;13.27;6.70;;;11.80;99.90;;;12.46;61.97;102937.25;5054487;28;20049;-69
2021/04/23 06:22:53;;;;;;;11.55;6.70;;;12.00;99.90;;;12.53;62.41;102944.47;5072486;28;20052;-69
2021/04/23 06:25:22;;;;;;;13.65;6.20;;;12.20;99.90;;;12.83;61.10;102933.56;5072475;28;20045;-69
2021/04/23 06:27:51;;;;;;;23.33;6.88;;;12.40;99.90;;;13.04;59.86;102939.34;5072087;28;20048;-69
2021/04/23 06:30:22;;;;;;;11.95;6.78;;;12.60;99.90;;;13.00;59.38;102937.44;5072448;28;20040;-70
2021/04/23 06:32:50;;;;;;;12.57;6.65;;;12.70;99.90;;;13.14;59.03;102946.63;5072372;28;20051;-70
2021/04/23 06:35:20;;;;;;;20.23;8.10;;;12.80;99.90;;;13.12;58.73;102938.63;5072335;28;20068;-69
2021/04/23 06:37:48;;;;;;;20.95;6.88;;;12.70;99.90;;;13.23;57.29;102925.50;5054441;28;20056;-70
2021/04/23 06:40:17;;;;;;;19.63;7.60;;;12.90;99.90;;;13.53;57.11;102934.00;5072330;28;20060;-69
2021/04/23 06:42:46;;;;;;;16.45;6.88;;;13.20;99.90;;;13.57;56.05;102942.06;5072260;28;20059;-69
2021/04/23 06:45:16;;;;;;;17.65;6.47;;;13.20;99.90;;;13.71;54.99;102938.72;5072034;28;20457;-69
2021/04/23 06:47:44;;;;;;;16.20;7.05;;;13.40;99.90;;;13.85;54.61;102927.44;5072057;28;20052;-69
2021/04/23 06:50:15;;;;;;;17.15;5.93;;;13.60;99.90;;;13.26;53.92;102841.41;5072216;28;20095;-69
2021/04/23 06:52:43;;;;;;;13.45;6.57;;;13.60;99.90;;;13.96;53.44;102948.88;5053714;28;20052;-70
2021/04/23 06:55:14;;;;;;;13.73;5.80;;;13.60;99.90;;;14.02;53.82;102940.97;5054149;28;20103;-69
2021/04/23 06:57:41;;;;;;;;;;;13.80;99.90;;;14.10;53.39;102939.34;5054551;28;20102;-70
2021/04/23 07:00:14;;;;;;;16.55;5.60;;;13.90;99.90;;;14.13;52.71;102942.06;5072078;28;19977;-70
2021/04/23 07:02:42;;;;;;;17.48;6.07;;;13.90;99.90;;;14.19;52.42;102945.69;5072170;28;20052;-70
2021/04/23 07:05:12;;;;;;;15.15;5.95;;;14.00;99.90;;;14.21;52.42;102946.59;5072047;28;20131;-69
2021/04/23 07:07:40;;;;;;;14.07;5.80;;;14.00;99.90;;;14.12;51.84;102922.53;5071782;28;20041;-70
2021/04/23 07:10:12;;;;;;;12.98;5.47;;;14.00;99.90;;;14.28;51.28;102955.59;5072009;28;20086;-69
2021/04/23 07:12:40;;;;;;;15.32;5.95;;;14.10;99.90;;;14.28;51.49;102947.63;5071793;28;20074;-70
2021/04/23 07:15:14;;;;;;;10.75;5.60;;;14.10;99.90;;;14.27;51.38;102953.75;5071848;28;20053;-69
2021/04/23 07:17:42;;;;;;;16.98;6.45;;;14.00;99.90;;;14.41;51.18;102947.81;5072010;28;20052;-70
2021/04/23 07:20:30;;;;;;;15.52;5.75;;;14.20;99.90;;;14.48;50.73;102950.56;5072031;28;20121;-69
2021/04/23 07:22:58;;;;;;;13.10;6.03;;;14.20;99.90;;;14.56;50.79;102955.09;5071996;28;20124;-69
2021/04/23 07:25:26;;;;;;;14.55;6.07;;;14.30;99.90;;;14.63;50.41;102951.63;5071843;28;20053;-69
2021/04/23 07:27:53;;;;;;;12.65;5.95;;;14.40;99.90;;;14.19;49.39;102944.78;5071453;28;20044;-70
2021/04/23 07:30:27;;;;;;;14.20;6.30;;;14.20;99.90;;;14.45;50.98;102946.97;5071672;28;20049;-69
2021/04/23 07:32:55;;;;;;;14.90;6.72;;;14.20;99.90;;;14.72;50.67;102946.41;5071762;28;20051;-69
2021/04/23 07:35:23;;;;;;;16.75;7.15;;;14.40;99.90;;;14.86;50.97;102952.81;5071857;28;20144;-69
2021/04/23 07:37:51;;;;;;;14.82;6.40;;;14.60;99.90;;;14.62;49.78;102948.94;5071768;28;20072;-70
2021/04/23 07:40:20;;;;;;;15.57;6.05;;;14.60;99.90;;;14.03;50.96;102941.00;5071510;28;20052;-69
2021/04/23 07:42:48;;;;;;;23.02;8.02;;;14.00;99.90;;;14.15;50.21;102945.63;5071792;28;20056;-70
2021/04/23 07:45:17;;;;;;;14.10;6.20;;;13.90;99.90;;;14.16;50.90;102947.41;5071408;28;20124;-70
2021/04/23 07:47:47;;;;;;;18.52;6.97;;;13.80;99.90;;;13.47;51.76;102940.09;5071385;28;20499;-70
2021/04/23 07:50:18;;;;;;;15.80;6.30;;;13.30;99.90;;;13.81;51.17;102936.25;5072200;28;20048;-70
2021/04/23 07:52:46;;;;;;;13.80;6.20;;;13.50;99.90;;;13.15;50.49;102943.97;5071487;28;20087;-70
2021/04/23 07:55:16;;;;;;;20.15;7.43;;;13.20;99.90;;;11.78;54.50;102944.56;5071819;28;20044;-69
2021/04/23 07:57:45;;;;;;;29.50;6.95;;;12.00;99.90;;;11.57;54.98;102938.72;5071492;28;20084;-70
2021/04/23 08:00:16;;;;;;;16.88;7.10;;;11.40;99.90;;;11.98;55.37;102942.34;5071495;28;20045;-70
2021/04/23 08:02:45;;;;;;;19.38;6.70;;;11.50;99.90;;;12.45;54.07;102943.41;5073095;28;20056;-72
2021/04/23 08:05:15;;;;;;;16.27;6.40;;;12.00;99.90;;;12.85;53.46;102947.78;5073634;28;20517;-70
2021/04/23 08:07:59;;;;;;;18.33;6.68;;;12.40;99.90;;;11.28;54.44;102828.47;5056926;28;20487;-69
2021/04/23 08:10:27;;;;;;;20.85;6.63;;;11.80;99.90;;;12.28;55.19;102950.13;5074641;28;20036;-73
2021/04/23 08:12:55;;;;;;;16.75;6.50;;;11.90;99.90;;;12.94;54.98;102938.22;5075333;28;20154;-71
2021/04/23 08:15:24;;;;;;;19.65;7.82;;;12.40;99.90;;;13.30;53.66;102922.97;5074907;28;20048;-73
2021/04/23 08:17:53;;;;;;;19.90;7.70;;;13.00;99.90;;;14.03;53.03;102932.13;5074599;28;20044;-72
2021/04/23 08:20:21;;;;;;;16.17;7.30;;;13.60;99.90;;;14.27;51.03;102937.78;5074871;28;20148;-70
2021/04/23 08:22:49;;;;;;;17.33;6.78;;;14.00;99.90;;;14.65;51.04;102933.91;5074829;28;20048;-68
2021/04/23 08:25:18;;;;;;;12.80;5.85;;;14.40;99.90;;;15.03;50.32;102937.88;5056540;28;20067;-68
2021/04/23 08:27:48;;;;;;;12.32;6.15;;;14.70;99.90;;;15.37;48.39;102940.00;5074786;28;20430;-67
2021/04/23 08:30:18;;;;;;;14.95;6.57;;;15.10;99.90;;;15.70;47.75;102947.41;5056706;28;20083;-67
2021/04/23 08:32:46;;;;;;;17.98;5.93;;;15.50;99.90;;;15.46;46.65;102941.00;5056717;28;20440;-67
2021/04/23 08:35:15;;;;;;;14.02;5.20;;;15.40;99.90;;;15.61;46.86;102935.78;5074158;28;20044;-68
2021/04/23 08:37:43;;;;;;;14.35;5.93;;;15.40;99.90;;;15.70;45.30;102935.88;5074611;28;20052;-67
2021/04/23 08:40:15;;;;;;;12.05;5.78;;;15.50;99.90;;;15.89;45.95;102946.66;5074871;28;20048;-67
2021/04/23 08:42:43;;;;;;;13.90;6.13;;;15.60;99.90;;;16.01;44.31;102944.09;5074552;28;20110;-67
2021/04/23 08:45:14;;;;;;;9.50;5.05;;;15.80;99.90;;;16.14;43.72;102958.44;5074355;28;20040;-67
2021/04/23 08:47:44;;;;;;;15.77;5.35;;;16.00;99.90;;;16.17;44.08;102942.41;5074350;28;20041;-73
2021/04/23 08:50:20;;;;;;;10.93;5.10;;;15.90;99.90;;;16.39;43.77;102947.00;5056048;28;20052;-68
2021/04/23 08:52:50;;;;;;;14.15;5.55;;;16.10;99.90;;;16.54;43.61;102939.06;5074530;28;20158;-68
2021/04/23 08:55:20;;;;;;;11.97;5.27;;;16.30;99.90;;;16.76;43.25;102935.56;5074231;28;20101;-68
2021/04/23 08:58:09;;;;;;;11.25;4.93;;;16.50;99.90;;;16.90;43.06;102944.53;5074208;28;20364;-69
2021/04/23 09:00:36;;;;;;;18.40;5.50;;;16.70;99.90;;;16.88;43.26;102922.25;5074184;28;20037;-69
2021/04/23 09:03:04;;;;;;;11.75;4.57;;;16.80;99.90;;;17.13;42.37;102956.19;5073927;28;20041;-69
2021/04/23 09:05:34;;;;;;;15.25;5.22;;;17.10;99.90;;;17.37;41.98;102941.06;5074021;28;20048;-69
2021/04/23 09:08:04;;;;;;;10.32;5.10;;;17.20;99.90;;;16.99;42.17;102880.38;5073913;28;20048;-66
2021/04/23 09:10:32;;;;;;;12.23;4.90;;;17.20;99.90;;;17.61;41.57;102949.16;5074286;28;20067;-64
2021/04/23 09:13:10;;;;;;;13.30;5.38;;;17.40;99.90;;;17.69;41.27;102944.69;5074083;28;20079;-67
2021/04/23 09:15:41;;;;;;;13.73;4.72;;;17.50;99.90;;;17.44;40.42;102946.41;5073426;28;20089;-66
2021/04/23 09:18:12;;;;;;;11.75;5.10;;;17.40;99.90;;;17.31;42.78;102947.31;5072567;28;20049;-67
2021/04/23 09:20:45;;;;;;;12.60;5.22;;;17.10;99.90;;;17.59;41.33;102945.56;5073605;28;20037;-67
2021/04/23 09:23:16;;;;;;;13.95;5.65;;;17.30;99.90;;;17.65;40.38;102943.78;5073762;28;20060;-68
2021/04/23 09:25:49;;;;;;;12.88;5.65;;;17.50;99.90;;;17.53;40.46;102950.94;5073370;28;20041;-67
2021/04/23 09:28:33;;;;;;;9.63;4.53;;;17.40;99.90;;;16.38;42.95;102937.19;5073436;28;20044;-67
2021/04/23 09:31:21;;;;;;;10.43;4.88;;;16.70;99.90;;;16.29;44.46;102931.81;5073564;28;20048;-67
2021/04/23 09:33:53;;;;;;;10.38;4.80;;;16.10;99.90;;;16.87;42.93;102949.00;5073586;28;20059;-66
2021/04/23 09:36:31;;;;;;;14.18;5.32;;;16.50;99.90;;;17.11;42.79;102941.91;5073217;28;20036;-67
2021/04/23 09:39:11;;;;;;;12.32;4.72;;;16.80;99.90;;;17.17;42.53;102942.84;5072988;28;20118;-66
2021/04/23 09:41:40;;;;;;;12.23;5.05;;;17.00;99.90;;;17.38;41.70;102950.88;5073101;28;20511;-67
2021/04/23 09:44:34;;;;;;;12.27;4.75;;;17.20;99.90;;;17.40;41.98;102947.28;5073115;28;20106;-67
2021/04/23 09:47:10;;;;;;;11.70;4.78;;;17.20;99.90;;;17.36;42.46;102945.53;5073206;28;20102;-68
2021/04/23 09:49:39;;;;;;;11.35;5.07;;;17.10;99.90;;;17.43;41.35;102943.75;5073220;28;20124;-67
2021/04/23 09:52:10;;;;;;;8.05;4.72;;;17.20;99.90;;;17.61;41.08;102950.06;5072994;28;20036;-67
2021/04/23 09:54:38;;;;;;;10.25;4.40;;;17.40;99.90;;;17.86;40.66;102941.09;5055216;28;20510;-67
2021/04/23 09:57:17;;;;;;;10.15;4.80;;;17.70;99.90;;;18.15;39.72;102945.50;5073032;28;20067;-67
2021/04/23 09:59:52;;;;;;;12.13;5.18;;;17.90;99.90;;;17.96;39.62;102934.81;5073010;28;20155;-67
2021/04/23 10:02:21;;;;;;;10.55;4.78;;;17.90;99.90;;;17.98;39.01;102902.69;5072635;28;20045;-67
2021/04/23 10:04:49;;;;;;;10.98;4.68;;;18.00;99.90;;;18.24;37.99;102941.00;5072934;28;20147;-66
2021/04/23 10:07:23;;;;;;;7.60;4.25;;;18.00;99.90;;;18.38;38.50;102947.22;5072425;28;20403;-70
2021/04/23 10:10:01;;;;;;;10.70;4.70;;;18.10;99.90;;;18.20;38.53;102869.56;5071344;28;20135;-70
2021/04/23 10:12:41;;;;;;;10.48;5.03;;;18.40;99.90;;;18.72;37.68;102946.22;5072661;28;20444;-70
2021/04/23 10:15:17;;;;;;;12.77;4.88;;;18.50;99.90;;;18.68;37.78;102955.16;5072667;28;20048;-69
2021/04/23 10:17:47;;;;;;;12.45;4.70;;;18.50;99.90;;;17.22;38.71;102958.00;5072656;28;20062;-69
2021/04/23 10:20:18;;;;;;;7.85;4.55;;;17.30;99.90;;;17.77;39.82;102958.94;5072384;28;20040;-69
2021/04/23 10:22:47;;;;;;;10.45;5.13;;;17.40;99.90;;;17.86;38.75;102959.84;5072536;28;20080;-67
2021/04/23 10:25:15;;;;;;;11.85;4.60;;;17.60;99.90;;;17.99;38.47;102950.00;5072407;28;20044;-68
2021/04/23 10:27:45;;;;;;;10.75;4.88;;;17.70;99.90;;;18.04;38.17;102951.75;5071673;28;20059;-72
2021/04/23 10:30:16;;;;;;;12.30;5.10;;;17.80;99.90;;;17.88;37.89;102975.91;5072349;28;20052;-73
2021/04/23 10:33:06;;;;;;;8.38;4.38;;;17.70;99.90;;;17.78;38.49;102955.38;5072102;28;20484;-73